Time,TemperatureF,DewpointF,PressureIn,WindDirection,WindDirectionDegrees,WindSpeedMPH,WindSpeedGustMPH,Humidity,HourlyPrecipIn,Conditions,Clouds,dailyrainin,SoftwareType,DateUTC
2015-01-30 00:00:00,62.1,13.8,30.21,ENE,63,0.0,0.0,15,0.00,,,0.00,Wunderground PWS Mod,2015-01-30 05:00:00,
2015-01-30 00:05:00,62.0,13.8,30.20,ENE,63,0.0,0.0,15,0.00,,,0.00,Wunderground PWS Mod,2015-01-30 05:05:00,
2015-01-30 00:15:00,61.9,13.7,30.20,ENE,63,0.0,0.0,15,0.00,,,0.00,Wunderground PWS Mod,2015-01-30 05:15:00,
2015-01-30 00:25:00,61.7,13.5,30.20,ENE,63,0.0,0.0,15,0.00,,,0.00,Wunderground PWS Mod,2015-01-30 05:25:00,
2015-01-30 00:35:00,61.5,13.4,30.20,ENE,63,0.0,0.0,15,0.00,,,0.00,Wunderground PWS Mod,2015-01-30 05:35:00,
2015-01-30 00:45:00,61.4,13.3,30.20,ENE,63,0.0,0.0,15,0.00,,,0.00,Wunderground PWS Mod,2015-01-30 05:45:00,
2015-01-30 00:55:00,61.4,13.3,30.20,ENE,63,0.0,0.0,15,0.00,,,0.00,Wunderground PWS Mod,2015-01-30 05:55:00,
2015-01-30 01:00:00,61.3,13.2,30.20,ENE,63,0.0,0.0,15,0.00,,,0.00,Wunderground PWS Mod,2015-01-30 06:00:00,
2015-01-30 01:05:00,61.3,13.2,30.20,ENE,63,0.0,0.0,15,0.00,,,0.00,Wunderground PWS Mod,2015-01-30 06:05:00,
2015-01-30 01:15:00,61.2,13.1,30.20,ENE,63,0.0,0.0,15,0.00,,,0.00,Wunderground PWS Mod,2015-01-30 06:15:00,
2015-01-30 01:25:00,61.2,13.1,30.19,ENE,63,0.0,0.0,15,0.00,,,0.00,Wunderground PWS Mod,2015-01-30 06:25:00,
2015-01-30 01:30:00,61.1,13.0,30.19,ENE,63,0.0,0.0,15,0.00,,,0.00,Wunderground PWS Mod,2015-01-30 06:30:00,
2015-01-30 01:35:00,61.0,12.9,30.19,ENE,63,0.0,0.0,15,0.00,,,0.00,Wunderground PWS Mod,2015-01-30 06:35:00,
2015-01-30 01:45:00,61.0,12.9,30.19,ENE,63,0.0,0.0,15,0.00,,,0.00,Wunderground PWS Mod,2015-01-30 06:45:00,
2015-01-30 01:55:00,60.9,12.9,30.19,ENE,63,0.0,0.0,15,0.00,,,0.00,Wunderground PWS Mod,2015-01-30 06:55:00,
2015-01-30 02:00:00,60.9,12.9,30.19,ENE,63,0.0,0.0,15,0.00,,,0.00,Wunderground PWS Mod,2015-01-30 07:00:00,
2015-01-30 02:05:00,60.9,12.9,30.18,ENE,63,0.0,0.0,15,0.00,,,0.00,Wunderground PWS Mod,2015-01-30 07:05:00,
2015-01-30 02:15:00,60.9,12.9,30.18,ENE,63,0.0,0.0,15,0.00,,,0.00,Wunderground PWS Mod,2015-01-30 07:15:00,
2015-01-30 02:20:00,60.9,12.9,30.18,N/A,-737280,0.0,0.0,15,0.00,,,0.00,Wunderground PWS Mod,2015-01-30 07:20:00,
2015-01-30 02:25:00,60.9,12.9,30.18,ENE,63,0.0,0.0,15,0.00,,,0.00,Wunderground PWS Mod,2015-01-30 07:25:00,
2015-01-30 02:35:00,60.9,12.9,30.18,ENE,63,0.0,0.0,15,0.00,,,0.00,Wunderground PWS Mod,2015-01-30 07:35:00,
2015-01-30 02:40:00,60.9,12.9,30.18,N/A,-737280,0.0,0.0,15,0.00,,,0.00,Wunderground PWS Mod,2015-01-30 07:40:00,
2015-01-30 02:45:00,61.0,12.9,30.17,ENE,63,0.0,0.0,15,0.00,,,0.00,Wunderground PWS Mod,2015-01-30 07:45:00,
2015-01-30 02:55:00,60.9,12.9,30.17,ENE,63,0.0,0.0,15,0.00,,,0.00,Wunderground PWS Mod,2015-01-30 07:55:00,
2015-01-30 03:05:00,60.8,12.8,30.17,ENE,63,0.0,0.0,15,0.00,,,0.00,Wunderground PWS Mod,2015-01-30 08:05:00,
2015-01-30 03:15:00,60.8,12.8,30.17,ENE,63,0.0,0.0,15,0.00,,,0.00,Wunderground PWS Mod,2015-01-30 08:15:00,
2015-01-30 03:20:00,60.7,12.7,30.17,ENE,63,0.0,0.0,15,0.00,,,0.00,Wunderground PWS Mod,2015-01-30 08:20:00,
2015-01-30 03:25:00,60.7,12.7,30.17,ENE,63,0.0,0.0,15,0.00,,,0.00,Wunderground PWS Mod,2015-01-30 08:25:00,
2015-01-30 03:35:00,60.7,12.7,30.17,ENE,63,0.0,0.0,15,0.00,,,0.00,Wunderground PWS Mod,2015-01-30 08:35:00,
2015-01-30 03:40:00,60.7,12.7,30.17,N/A,-737280,0.0,0.0,15,0.00,,,0.00,Wunderground PWS Mod,2015-01-30 08:40:00,
2015-01-30 03:45:00,60.7,12.7,30.17,ENE,63,0.0,0.0,15,0.00,,,0.00,Wunderground PWS Mod,2015-01-30 08:45:00,
2015-01-30 03:55:00,60.7,12.7,30.17,ENE,63,0.0,0.0,15,0.00,,,0.00,Wunderground PWS Mod,2015-01-30 08:55:00,
2015-01-30 04:00:00,60.7,12.7,30.16,ENE,63,0.0,0.0,15,0.00,,,0.00,Wunderground PWS Mod,2015-01-30 09:00:00,
2015-01-30 04:05:00,60.6,12.6,30.16,ENE,63,0.0,0.0,15,0.00,,,0.00,Wunderground PWS Mod,2015-01-30 09:05:00,
2015-01-30 04:15:00,60.5,12.5,30.16,ENE,63,0.0,0.0,15,0.00,,,0.00,Wunderground PWS Mod,2015-01-30 09:15:00,
2015-01-30 04:20:00,60.5,12.5,30.16,N/A,-737280,0.0,0.0,15,0.00,,,0.00,Wunderground PWS Mod,2015-01-30 09:20:00,
2015-01-30 04:25:00,60.3,12.4,30.16,ENE,63,0.0,0.0,15,0.00,,,0.00,Wunderground PWS Mod,2015-01-30 09:25:00,
2015-01-30 04:35:00,59.8,12.0,30.16,ENE,63,0.0,0.0,15,0.00,,,0.00,Wunderground PWS Mod,2015-01-30 09:35:00,
2015-01-30 04:45:00,59.5,11.7,30.16,ENE,63,0.0,0.0,15,0.00,,,0.00,Wunderground PWS Mod,2015-01-30 09:45:00,
2015-01-30 04:55:00,59.2,11.5,30.16,ENE,63,0.0,0.0,15,0.00,,,0.00,Wunderground PWS Mod,2015-01-30 09:55:00,
2015-01-30 05:00:00,59.1,11.4,30.16,N/A,-737280,0.0,0.0,15,0.00,,,0.00,Wunderground PWS Mod,2015-01-30 10:00:00,
2015-01-30 05:05:00,58.5,10.9,30.16,ENE,63,0.0,0.0,15,0.00,,,0.00,Wunderground PWS Mod,2015-01-30 10:05:00,
2015-01-30 05:15:00,58.1,10.6,30.16,ENE,63,0.0,0.0,15,0.00,,,0.00,Wunderground PWS Mod,2015-01-30 10:15:00,
2015-01-30 05:25:00,57.9,10.5,30.16,ENE,63,0.0,0.0,15,0.00,,,0.00,Wunderground PWS Mod,2015-01-30 10:25:00,
2015-01-30 05:30:00,57.8,10.4,30.16,ENE,63,0.0,0.0,15,0.00,,,0.00,Wunderground PWS Mod,2015-01-30 10:30:00,
2015-01-30 05:35:00,57.7,10.3,30.16,ENE,63,0.0,0.0,15,0.00,,,0.00,Wunderground PWS Mod,2015-01-30 10:35:00,
2015-01-30 05:45:00,57.3,10.0,30.16,ENE,63,0.0,0.0,15,0.00,,,0.00,Wunderground PWS Mod,2015-01-30 10:45:00,
2015-01-30 05:50:00,57.3,10.0,30.16,N/A,-737280,0.0,0.0,15,0.00,,,0.00,Wunderground PWS Mod,2015-01-30 10:50:00,
2015-01-30 06:00:00,56.7,9.5,30.16,ENE,63,0.0,0.0,15,0.00,,,0.00,Wunderground PWS Mod,2015-01-30 11:00:00,
2015-01-30 06:05:00,56.6,9.4,30.17,ENE,63,0.0,0.0,15,0.00,,,0.00,Wunderground PWS Mod,2015-01-30 11:05:00,
2015-01-30 06:15:00,56.4,9.2,30.17,ENE,63,0.0,0.0,15,0.00,,,0.00,Wunderground PWS Mod,2015-01-30 11:15:00,
2015-01-30 06:20:00,56.3,9.2,30.17,ENE,63,0.0,0.0,15,0.00,,,0.00,Wunderground PWS Mod,2015-01-30 11:20:00,
2015-01-30 06:25:00,56.3,9.2,30.17,ENE,63,0.0,0.0,15,0.00,,,0.00,Wunderground PWS Mod,2015-01-30 11:25:00,
2015-01-30 06:35:00,56.1,9.0,30.17,ENE,63,0.0,0.0,15,0.00,,,0.00,Wunderground PWS Mod,2015-01-30 11:35:00,
2015-01-30 06:45:00,56.0,8.9,30.17,ENE,63,0.0,0.0,15,0.00,,,0.00,Wunderground PWS Mod,2015-01-30 11:45:00,
2015-01-30 06:50:00,56.0,8.9,30.17,N/A,-737280,0.0,0.0,15,0.00,,,0.00,Wunderground PWS Mod,2015-01-30 11:50:00,
2015-01-30 06:55:00,55.8,8.8,30.17,ENE,63,0.0,0.0,15,0.00,,,0.00,Wunderground PWS Mod,2015-01-30 11:55:00,
2015-01-30 07:05:00,55.6,8.6,30.18,ENE,63,0.0,0.0,15,0.00,,,0.00,Wunderground PWS Mod,2015-01-30 12:05:00,
2015-01-30 07:15:00,55.4,8.4,30.18,ENE,63,0.0,0.0,15,0.00,,,0.00,Wunderground PWS Mod,2015-01-30 12:15:00,
2015-01-30 07:25:00,55.2,8.3,30.18,ENE,63,0.0,0.0,15,0.00,,,0.00,Wunderground PWS Mod,2015-01-30 12:25:00,
2015-01-30 07:30:00,55.2,8.3,30.18,N/A,-737280,0.0,0.0,15,0.00,,,0.00,Wunderground PWS Mod,2015-01-30 12:30:00,
2015-01-30 07:35:00,55.1,8.2,30.19,ENE,63,0.0,0.0,15,0.00,,,0.00,Wunderground PWS Mod,2015-01-30 12:35:00,
2015-01-30 07:45:00,55.2,8.3,30.19,ENE,63,0.0,0.0,15,0.00,,,0.00,Wunderground PWS Mod,2015-01-30 12:45:00,
2015-01-30 07:55:00,55.8,8.8,30.19,NE,41,0.0,0.0,15,0.00,,,0.00,Wunderground PWS Mod,2015-01-30 12:55:00,
2015-01-30 08:05:00,56.4,9.2,30.20,NE,39,0.0,0.0,15,0.00,,,0.00,Wunderground PWS Mod,2015-01-30 13:05:00,
2015-01-30 08:15:00,57.3,10.0,30.20,NE,36,0.0,0.0,15,0.00,,,0.00,Wunderground PWS Mod,2015-01-30 13:15:00,
2015-01-30 08:20:00,57.3,10.0,30.20,N/A,-737280,0.0,0.0,15,0.00,,,0.00,Wunderground PWS Mod,2015-01-30 13:20:00,
2015-01-30 08:30:00,59.1,11.4,30.20,NW,324,0.0,4.0,15,0.00,,,0.00,Wunderground PWS Mod,2015-01-30 13:30:00,
2015-01-30 08:35:00,59.7,11.9,30.20,NW,309,1.0,4.0,15,0.00,,,0.00,Wunderground PWS Mod,2015-01-30 13:35:00,
2015-01-30 08:45:00,60.8,12.8,30.20,NW,311,1.0,1.0,15,0.00,,,0.00,Wunderground PWS Mod,2015-01-30 13:45:00,
2015-01-30 08:50:00,61.4,13.3,30.21,NW,311,0.0,0.0,15,0.00,,,0.00,Wunderground PWS Mod,2015-01-30 13:50:00,
2015-01-30 09:00:00,62.6,14.2,30.21,NW,306,2.0,4.0,15,0.00,,,0.00,Wunderground PWS Mod,2015-01-30 14:00:00,
2015-01-30 09:05:00,63.2,14.7,30.22,WNW,297,3.0,4.0,15,0.00,,,0.00,Wunderground PWS Mod,2015-01-30 14:05:00,
2015-01-30 09:15:00,64.5,15.8,30.22,WNW,300,4.0,4.0,15,0.00,,,0.00,Wunderground PWS Mod,2015-01-30 14:15:00,
2015-01-30 09:25:00,65.3,30.4,30.22,NW,323,2.0,3.0,27,0.00,,,0.00,Wunderground PWS Mod,2015-01-30 14:25:00,
2015-01-30 09:30:00,65.4,32.3,30.22,NW,315,0.0,2.0,29,0.00,,,0.00,Wunderground PWS Mod,2015-01-30 14:30:00,
2015-01-30 09:40:00,66.4,42.0,30.22,NW,323,2.0,2.0,41,0.00,,,0.00,Wunderground PWS Mod,2015-01-30 14:40:00,
2015-01-30 09:50:00,67.2,45.1,30.22,WNW,292,1.0,5.0,45,0.00,,,0.00,Wunderground PWS Mod,2015-01-30 14:50:00,
2015-01-30 09:55:00,67.6,47.2,30.22,West,273,3.0,7.0,48,0.00,,,0.00,Wunderground PWS Mod,2015-01-30 14:55:00,
2015-01-30 10:05:00,68.1,49.3,30.22,WNW,286,4.0,11.0,51,0.00,,,0.00,Wunderground PWS Mod,2015-01-30 15:05:00,
2015-01-30 10:10:00,68.1,49.3,30.22,West,270,6.0,9.0,51,0.00,,,0.00,Wunderground PWS Mod,2015-01-30 15:10:00,
2015-01-30 10:15:00,68.6,50.8,30.22,WNW,282,5.0,10.0,53,0.00,,,0.00,Wunderground PWS Mod,2015-01-30 15:15:00,